createdAt,value
2017-04-19T00:00:24.141Z,70.24
2017-04-19T00:01:25.554Z,70.53
2017-04-19T00:02:27.941Z,70.15
2017-04-19T00:03:29.361Z,69.67
2017-04-19T00:04:30.790Z,70.15
2017-04-19T00:05:32.208Z,70.05
2017-04-19T00:06:33.629Z,70.34
2017-04-19T00:07:35.056Z,70.05
2017-04-19T00:08:36.469Z,69.38
2017-04-19T00:09:37.888Z,70.24
2017-04-19T00:10:39.316Z,70.43
2017-04-19T00:11:40.760Z,69.67
2017-04-19T00:12:42.160Z,69.77
2017-04-19T00:13:43.579Z,69.96
2017-04-19T00:14:44.994Z,70.62
2017-04-19T00:15:46.409Z,71.19
2017-04-19T00:16:47.879Z,70.43
2017-04-19T00:17:49.302Z,70.62
2017-04-19T00:18:50.729Z,71.19
2017-04-19T00:19:52.145Z,70.62
2017-04-19T00:20:53.566Z,70.62
2017-04-19T00:21:54.993Z,70.15
2017-04-19T00:22:56.408Z,70.81
2017-04-19T00:23:58.754Z,70.53
2017-04-19T00:25:00.170Z,70.43
2017-04-19T00:26:01.588Z,70.43
2017-04-19T00:27:03.005Z,70.15
2017-04-19T00:28:04.430Z,69.86
2017-04-19T00:29:05.845Z,70.53
2017-04-19T00:30:07.265Z,69.38
2017-04-19T00:31:08.690Z,69.48
2017-04-19T00:32:10.112Z,70.15
2017-04-19T00:33:11.540Z,69.86
2017-04-19T00:34:12.958Z,69.57
2017-04-19T00:35:14.377Z,69.86
2017-04-19T00:36:15.791Z,69.67
2017-04-19T00:37:17.220Z,69.10
2017-04-19T00:38:18.643Z,68.91
2017-04-19T00:39:20.067Z,69.29
2017-04-19T00:40:21.487Z,69.67
2017-04-19T00:41:22.908Z,70.05
2017-04-19T00:42:24.332Z,70.15
2017-04-19T00:43:25.754Z,68.91
2017-04-19T00:44:27.169Z,69.29
2017-04-19T00:45:28.589Z,69.29
2017-04-19T00:46:30.009Z,69.67
2017-04-19T00:47:31.430Z,70.34
2017-04-19T00:48:32.848Z,70.05
2017-04-19T00:49:34.269Z,70.15
2017-04-19T00:50:35.686Z,69.96
2017-04-19T00:51:37.114Z,70.34
2017-04-19T00:52:38.531Z,69.96
2017-04-19T00:53:39.961Z,70.05
2017-04-19T00:54:41.389Z,69.86
2017-04-19T00:55:42.808Z,70.43
2017-04-19T00:56:44.230Z,69.77
2017-04-19T00:57:45.646Z,69.38
2017-04-19T00:58:47.082Z,69.38
2017-04-19T00:59:48.500Z,70.62
2017-04-19T01:00:49.941Z,71.09
2017-04-19T01:01:51.395Z,70.34
2017-04-19T01:02:52.820Z,70.24
2017-04-19T01:03:54.250Z,70.34
2017-04-19T01:04:55.666Z,70.24
2017-04-19T01:05:57.088Z,70.72
2017-04-19T01:06:58.509Z,69.77
2017-04-19T01:07:59.933Z,70.05
2017-04-19T01:09:01.357Z,70.15
2017-04-19T01:10:02.768Z,69.77
2017-04-19T01:11:04.185Z,70.15
2017-04-19T01:12:05.610Z,70.62
2017-04-19T01:13:07.033Z,70.15
2017-04-19T01:14:08.452Z,70.62
2017-04-19T01:15:09.877Z,70.62
2017-04-19T01:16:11.304Z,70.43
2017-04-19T01:17:12.717Z,70.24
2017-04-19T01:18:14.139Z,69.67
2017-04-19T01:19:15.558Z,69.96
2017-04-19T01:20:16.981Z,70.15
2017-04-19T01:21:18.402Z,71.85
2017-04-19T01:22:19.817Z,71.44
2017-04-19T01:23:21.236Z,71.28
2017-04-19T01:24:22.654Z,71.34
2017-04-19T01:25:24.072Z,71.15
2017-04-19T01:26:25.493Z,71.44
2017-04-19T01:27:26.915Z,72.10
2017-04-19T01:28:28.340Z,71.53
2017-04-19T01:29:29.760Z,71.34
2017-04-19T01:30:31.181Z,72.10
2017-04-19T01:31:32.601Z,72.42
2017-04-19T01:32:34.028Z,71.19
2017-04-19T01:33:35.451Z,71.15
2017-04-19T01:34:36.872Z,72.19
2017-04-19T01:35:38.288Z,71.81
2017-04-19T01:36:39.709Z,72.77
2017-04-19T01:37:41.132Z,72.48
2017-04-19T01:38:42.553Z,72.86
2017-04-19T01:39:43.977Z,72.38
2017-04-19T01:40:45.418Z,72.48
2017-04-19T01:41:46.837Z,72.38
2017-04-19T01:42:48.214Z,72.48
2017-04-19T01:43:49.628Z,73.05
2017-04-19T01:44:51.051Z,72.38
2017-04-19T01:45:52.472Z,72.86
2017-04-19T01:46:53.893Z,72.82
2017-04-19T01:47:55.316Z,73.24
2017-04-19T01:48:56.736Z,72.96
2017-04-19T01:49:58.170Z,73.05
2017-04-19T01:50:59.604Z,73.14
2017-04-19T01:52:01.026Z,73.61
2017-04-19T01:53:02.445Z,73.52
2017-04-19T01:54:03.860Z,73.49
2017-04-19T01:55:05.272Z,73.43
2017-04-19T01:56:06.696Z,73.61
2017-04-19T01:57:08.111Z,73.68
2017-04-19T01:58:09.527Z,73.96
2017-04-19T01:59:10.941Z,73.99
2017-04-19T02:00:12.369Z,73.96
2017-04-19T02:01:13.794Z,73.90
2017-04-19T02:02:15.216Z,73.11
2017-04-19T02:03:17.170Z,74.05
2017-04-19T02:04:18.569Z,73.58
2017-04-19T02:05:19.990Z,73.96
2017-04-19T02:06:21.420Z,73.39
2017-04-19T02:07:22.838Z,74.15
2017-04-19T02:08:24.261Z,73.68
2017-04-19T02:09:25.679Z,73.58
2017-04-19T02:10:27.131Z,73.58
2017-04-19T02:11:28.547Z,73.77
2017-04-19T02:12:29.973Z,74.24
2017-04-19T02:13:31.396Z,73.96
2017-04-19T02:14:32.819Z,74.15
2017-04-19T02:15:34.240Z,73.11
2017-04-19T02:16:35.657Z,73.68
2017-04-19T02:17:37.078Z,73.58
2017-04-19T02:18:38.496Z,73.58
2017-04-19T02:19:39.915Z,73.11
2017-04-19T02:20:41.341Z,73.49
2017-04-19T02:21:42.759Z,73.96
2017-04-19T02:22:44.181Z,74.33
2017-04-19T02:23:45.602Z,74.15
2017-04-19T02:24:47.020Z,74.71
2017-04-19T02:25:48.444Z,73.96
2017-04-19T02:26:49.866Z,73.58
2017-04-19T02:27:51.288Z,74.15
2017-04-19T02:28:52.707Z,74.81
2017-04-19T02:29:54.129Z,74.43
2017-04-19T02:30:55.544Z,74.24
2017-04-19T02:31:56.965Z,73.86
2017-04-19T02:32:58.381Z,74.62
2017-04-19T02:33:59.818Z,73.77
2017-04-19T02:35:02.037Z,74.52
2017-04-19T02:36:02.599Z,74.15
2017-04-19T02:37:04.024Z,73.86
2017-04-19T02:38:05.468Z,74.05
2017-04-19T02:39:06.860Z,73.68
2017-04-19T02:40:08.284Z,73.49
2017-04-19T02:41:09.704Z,74.33
2017-04-19T02:42:11.162Z,73.86
2017-04-19T02:43:12.546Z,74.05
2017-04-19T02:44:13.961Z,74.15
2017-04-19T02:45:15.392Z,74.24
2017-04-19T02:46:16.809Z,74.05
2017-04-19T02:47:18.232Z,73.96
2017-04-19T02:48:19.652Z,74.52
2017-04-19T02:49:21.923Z,74.62
2017-04-19T02:50:23.353Z,74.40
2017-04-19T02:51:24.776Z,74.05
2017-04-19T02:52:26.193Z,74.52
2017-04-19T02:53:27.616Z,74.40
2017-04-19T02:54:29.032Z,74.43
2017-04-19T02:55:30.453Z,74.15
2017-04-19T02:56:31.872Z,74.11
2017-04-19T02:57:33.292Z,74.11
2017-04-19T02:58:34.709Z,74.62
2017-04-19T02:59:36.130Z,74.58
2017-04-19T03:00:37.550Z,74.77
2017-04-19T03:01:38.970Z,74.87
2017-04-19T03:02:40.391Z,74.68
2017-04-19T03:03:41.809Z,75.24
2017-04-19T03:04:43.236Z,75.34
2017-04-19T03:05:44.650Z,75.34
2017-04-19T03:06:46.067Z,75.53
2017-04-19T03:07:47.483Z,75.53
2017-04-19T03:08:48.905Z,75.05
2017-04-19T03:09:50.327Z,75.05
2017-04-19T03:10:51.738Z,74.68
2017-04-19T03:11:53.165Z,75.15
2017-04-19T03:12:54.589Z,74.40
2017-04-19T03:13:56.015Z,75.05
2017-04-19T03:14:57.437Z,75.34
2017-04-19T03:15:58.861Z,75.15
2017-04-19T03:17:00.281Z,75.53
2017-04-19T03:18:01.715Z,75.43
2017-04-19T03:19:03.130Z,76.29
2017-04-19T03:20:04.550Z,76.00
2017-04-19T03:21:05.968Z,76.57
2017-04-19T03:22:07.934Z,76.76
2017-04-19T03:23:09.331Z,77.04
2017-04-19T03:24:10.761Z,77.51
2017-04-19T03:25:12.183Z,77.89
2017-04-19T03:26:13.606Z,77.70
2017-04-19T03:27:15.032Z,77.61
2017-04-19T03:28:16.451Z,77.42
2017-04-19T03:29:17.873Z,77.61
2017-04-19T03:30:19.292Z,76.76
2017-04-19T03:31:20.710Z,76.67
2017-04-19T03:32:22.121Z,76.57
2017-04-19T03:33:23.536Z,76.95
2017-04-19T03:34:24.955Z,77.51
2017-04-19T03:35:26.383Z,77.42
2017-04-19T03:36:27.800Z,77.33
2017-04-19T03:37:29.224Z,77.33
2017-04-19T03:38:30.640Z,77.76
2017-04-19T03:39:32.057Z,78.23
2017-04-19T03:40:33.471Z,77.23
2017-04-19T03:41:34.891Z,77.23
2017-04-19T03:42:36.348Z,77.70
2017-04-19T03:43:37.768Z,77.14
2017-04-19T03:44:39.181Z,77.39
2017-04-19T03:45:40.598Z,77.51
2017-04-19T03:46:42.013Z,77.39
2017-04-19T03:47:43.442Z,77.23
2017-04-19T03:48:44.862Z,76.76
2017-04-19T03:49:46.276Z,76.86
2017-04-19T03:50:47.694Z,77.23
2017-04-19T03:51:49.114Z,77.04
2017-04-19T03:52:50.529Z,76.67
2017-04-19T03:53:51.953Z,76.10
2017-04-19T03:54:53.427Z,77.23
2017-04-19T03:55:54.849Z,76.95
2017-04-19T03:56:56.264Z,76.86
2017-04-19T03:57:57.688Z,76.95
2017-04-19T03:58:59.112Z,76.95
2017-04-19T04:00:00.537Z,76.86
2017-04-19T04:01:01.945Z,76.86
2017-04-19T04:02:03.362Z,75.72
2017-04-19T04:03:04.784Z,76.00
2017-04-19T04:04:06.197Z,76.86
2017-04-19T04:05:07.618Z,76.29
2017-04-19T04:06:09.035Z,76.48
2017-04-19T04:07:10.445Z,76.19
2017-04-19T04:08:11.873Z,76.76
2017-04-19T04:09:13.301Z,76.00
2017-04-19T04:10:14.716Z,76.29
2017-04-19T04:11:16.139Z,76.57
2017-04-19T04:12:17.553Z,76.29
2017-04-19T04:13:18.967Z,77.33
2017-04-19T04:14:20.390Z,77.10
2017-04-19T04:15:21.810Z,76.95
2017-04-19T04:16:23.229Z,76.67
2017-04-19T04:17:24.648Z,76.86
2017-04-19T04:18:26.072Z,76.29
2017-04-19T04:19:27.491Z,76.48
2017-04-19T04:20:28.909Z,76.48
2017-04-19T04:21:30.330Z,76.34
2017-04-19T04:22:31.750Z,76.82
2017-04-19T04:23:33.174Z,76.86
2017-04-19T04:24:34.592Z,76.76
2017-04-19T04:25:36.011Z,76.76
2017-04-19T04:26:37.437Z,76.91
2017-04-19T04:27:38.850Z,77.14
2017-04-19T04:28:40.270Z,77.10
2017-04-19T04:29:41.690Z,77.04
2017-04-19T04:30:43.116Z,77.04
2017-04-19T04:31:44.530Z,76.95
2017-04-19T04:32:45.952Z,76.63
2017-04-19T04:33:47.370Z,77.58
2017-04-19T04:34:48.803Z,76.95
2017-04-19T04:35:50.222Z,76.72
2017-04-19T04:36:51.643Z,76.95
2017-04-19T04:37:53.061Z,77.33
2017-04-19T04:38:54.484Z,77.58
2017-04-19T04:39:55.926Z,77.51
2017-04-19T04:40:57.350Z,77.20
2017-04-19T04:41:58.773Z,77.58
2017-04-19T04:43:00.195Z,77.01
2017-04-19T04:44:01.616Z,77.67
2017-04-19T04:45:03.031Z,77.58
2017-04-19T04:46:04.453Z,77.58
2017-04-19T04:47:05.874Z,77.39
2017-04-19T04:48:07.296Z,77.42
2017-04-19T04:49:08.724Z,77.01
2017-04-19T04:50:10.139Z,77.29
2017-04-19T04:51:11.562Z,77.80
2017-04-19T04:52:12.980Z,77.42
2017-04-19T04:53:14.400Z,77.39
2017-04-19T04:54:15.829Z,77.61
2017-04-19T04:55:17.256Z,77.51
2017-04-19T04:56:18.672Z,77.23
2017-04-19T04:57:20.087Z,76.95
2017-04-19T04:58:21.507Z,76.95
2017-04-19T04:59:22.924Z,75.91
2017-04-19T05:00:24.346Z,75.81
2017-04-19T05:01:25.774Z,75.81
2017-04-19T05:02:27.193Z,76.38
2017-04-19T05:03:28.609Z,75.91
2017-04-19T05:04:30.032Z,77.33
2017-04-19T05:05:31.455Z,76.95
2017-04-19T05:06:32.868Z,76.00
2017-04-19T05:07:34.290Z,76.10
2017-04-19T05:08:35.715Z,76.95
2017-04-19T05:09:37.133Z,76.10
2017-04-19T05:10:38.555Z,76.29
2017-04-19T05:11:39.970Z,76.29
2017-04-19T05:12:41.392Z,76.48
2017-04-19T05:13:42.812Z,76.38
2017-04-19T05:14:44.241Z,76.29
2017-04-19T05:15:45.663Z,76.76
2017-04-19T05:16:47.088Z,76.19
2017-04-19T05:17:48.516Z,76.86
2017-04-19T05:18:49.928Z,75.91
2017-04-19T05:19:51.354Z,75.34
2017-04-19T05:20:52.818Z,76.00
2017-04-19T05:21:54.240Z,75.91
2017-04-19T05:22:55.739Z,75.72
2017-04-19T05:23:57.160Z,75.53
2017-04-19T05:24:58.585Z,75.62
2017-04-19T05:26:00.006Z,76.10
2017-04-19T05:27:01.439Z,75.91
2017-04-19T05:28:02.861Z,76.00
2017-04-19T05:29:04.279Z,75.81
2017-04-19T05:30:06.678Z,76.19
2017-04-19T05:31:08.097Z,75.91
2017-04-19T05:32:09.531Z,76.00
2017-04-19T05:33:10.956Z,75.81
2017-04-19T05:34:12.383Z,76.29
2017-04-19T05:35:13.762Z,75.72
2017-04-19T05:36:15.184Z,76.00
2017-04-19T05:37:16.606Z,75.81
2017-04-19T05:38:18.023Z,75.81
2017-04-19T05:39:19.453Z,74.77
2017-04-19T05:40:20.879Z,75.43
2017-04-19T05:41:22.299Z,75.34
2017-04-19T05:42:23.711Z,75.57
2017-04-19T05:43:25.145Z,74.68
2017-04-19T05:44:26.568Z,74.43
2017-04-19T05:45:28.003Z,75.53
2017-04-19T05:46:29.427Z,75.43
2017-04-19T05:47:30.845Z,75.57
2017-04-19T05:48:32.270Z,74.90
2017-04-19T05:49:33.688Z,75.53
2017-04-19T05:50:35.113Z,75.05
2017-04-19T05:51:36.533Z,75.62
2017-04-19T05:52:37.959Z,76.89
2017-04-19T05:53:39.386Z,75.72
2017-04-19T05:54:40.806Z,76.10
2017-04-19T05:55:42.223Z,75.91
2017-04-19T05:56:43.644Z,75.57
2017-04-19T05:57:45.073Z,75.91
2017-04-19T05:58:46.494Z,75.72
2017-04-19T05:59:47.917Z,75.81
2017-04-19T06:00:49.343Z,76.10
2017-04-19T06:01:50.761Z,75.81
2017-04-19T06:02:52.193Z,75.91
2017-04-19T06:03:53.622Z,75.62
2017-04-19T06:04:55.043Z,75.34
2017-04-19T06:05:56.506Z,76.38
2017-04-19T06:06:57.934Z,76.23
2017-04-19T06:07:59.359Z,75.81
2017-04-19T06:09:00.782Z,75.72
2017-04-19T06:10:02.204Z,75.38
2017-04-19T06:11:03.617Z,75.43
2017-04-19T06:12:05.040Z,75.81
2017-04-19T06:13:06.461Z,76.19
2017-04-19T06:14:07.884Z,75.91
2017-04-19T06:15:09.383Z,75.81
2017-04-19T06:16:10.806Z,76.29
2017-04-19T06:17:12.229Z,76.23
2017-04-19T06:18:13.653Z,76.14
2017-04-19T06:19:15.146Z,75.85
2017-04-19T06:20:16.569Z,75.85
2017-04-19T06:21:17.994Z,75.38
2017-04-19T06:22:19.424Z,75.09
2017-04-19T06:23:20.840Z,75.38
2017-04-19T06:24:22.264Z,75.38
2017-04-19T06:25:23.695Z,75.00
2017-04-19T06:26:25.122Z,74.52
2017-04-19T06:27:26.541Z,74.24
2017-04-19T06:28:27.958Z,74.81
2017-04-19T06:29:29.382Z,73.58
2017-04-19T06:30:30.802Z,73.24
2017-04-19T06:31:32.223Z,73.96
2017-04-19T06:32:33.652Z,73.96
2017-04-19T06:33:35.081Z,74.71
2017-04-19T06:34:36.498Z,74.62
2017-04-19T06:35:37.925Z,74.62
2017-04-19T06:36:39.343Z,74.24
2017-04-19T06:37:40.765Z,74.56
2017-04-19T06:38:42.190Z,74.66
2017-04-19T06:39:43.613Z,73.52
2017-04-19T06:40:45.894Z,73.61
2017-04-19T06:41:47.317Z,73.33
2017-04-19T06:42:48.736Z,73.80
2017-04-19T06:43:50.151Z,73.05
2017-04-19T06:44:51.570Z,73.24
2017-04-19T06:45:53.000Z,73.71
2017-04-19T06:46:54.428Z,74.66
2017-04-19T06:47:55.855Z,74.37
2017-04-19T06:48:57.282Z,74.75
2017-04-19T06:49:58.836Z,74.28
2017-04-19T06:51:00.259Z,73.90
2017-04-19T06:52:01.684Z,73.90
2017-04-19T06:53:03.097Z,73.43
2017-04-19T06:54:04.525Z,73.43
2017-04-19T06:55:05.955Z,73.14
2017-04-19T06:56:07.382Z,72.48
2017-04-19T06:57:08.799Z,72.77
2017-04-19T06:58:10.221Z,72.00
2017-04-19T06:59:11.653Z,73.24
2017-04-19T07:00:13.070Z,73.43
2017-04-19T07:01:14.490Z,73.14
2017-04-19T07:02:15.914Z,73.14
2017-04-19T07:03:17.342Z,72.48
2017-04-19T07:04:18.773Z,71.53
2017-04-19T07:05:20.194Z,72.19
2017-04-19T07:06:21.624Z,72.29
2017-04-19T07:07:23.041Z,71.81
2017-04-19T07:08:24.462Z,70.97
2017-04-19T07:09:25.888Z,70.97
2017-04-19T07:10:27.356Z,71.15
2017-04-19T07:11:28.777Z,71.15
2017-04-19T07:12:30.201Z,71.28
2017-04-19T07:13:31.643Z,72.61
2017-04-19T07:14:33.072Z,72.04
2017-04-19T07:15:34.497Z,71.19
2017-04-19T07:16:35.916Z,72.14
2017-04-19T07:17:37.370Z,71.66
2017-04-19T07:18:38.736Z,70.90
2017-04-19T07:19:40.159Z,70.30
2017-04-19T07:20:41.583Z,70.72
2017-04-19T07:21:43.000Z,70.72
2017-04-19T07:22:44.424Z,71.09
2017-04-19T07:23:45.845Z,70.53
2017-04-19T07:24:47.267Z,70.53
2017-04-19T07:25:48.695Z,69.67
2017-04-19T07:26:50.108Z,70.05
2017-04-19T07:27:51.531Z,69.01
2017-04-19T07:28:52.966Z,69.38
2017-04-19T07:29:54.392Z,68.91
2017-04-19T07:30:55.815Z,69.38
2017-04-19T07:31:57.235Z,68.73
2017-04-19T07:32:58.666Z,68.44
2017-04-19T07:34:00.094Z,68.44
2017-04-19T07:35:01.518Z,68.38
2017-04-19T07:36:02.935Z,68.10
2017-04-19T07:37:04.356Z,66.86
2017-04-19T07:38:05.781Z,66.96
2017-04-19T07:39:07.206Z,66.96
2017-04-19T07:40:08.630Z,66.58
2017-04-19T07:41:10.056Z,66.20
2017-04-19T07:42:11.479Z,66.96
2017-04-19T07:43:12.903Z,66.86
2017-04-19T07:44:14.330Z,65.44
2017-04-19T07:45:15.760Z,66.10
2017-04-19T07:46:17.188Z,66.29
2017-04-19T07:47:18.614Z,65.82
2017-04-19T07:48:20.042Z,67.05
2017-04-19T07:49:21.472Z,66.39
2017-04-19T07:50:22.904Z,66.16
2017-04-19T07:51:24.335Z,67.49
2017-04-19T07:52:25.760Z,67.49
2017-04-19T07:53:27.183Z,67.49
2017-04-19T07:54:28.606Z,67.30
2017-04-19T07:55:30.041Z,66.35
2017-04-19T07:56:31.461Z,66.93
2017-04-19T07:57:32.883Z,66.86
2017-04-19T07:58:34.302Z,66.20
2017-04-19T07:59:35.742Z,66.20
2017-04-19T08:00:37.172Z,65.53
2017-04-19T08:01:39.077Z,65.82
2017-04-19T08:02:40.017Z,64.87
2017-04-19T08:03:41.487Z,64.30
2017-04-19T08:04:42.915Z,65.06
2017-04-19T08:05:44.341Z,65.06
2017-04-19T08:06:45.777Z,64.30
2017-04-19T08:07:47.206Z,64.30
2017-04-19T08:08:48.637Z,64.87
2017-04-19T08:09:50.066Z,64.30
2017-04-19T08:10:51.490Z,64.78
2017-04-19T08:11:52.912Z,64.27
2017-04-19T08:12:54.336Z,64.40
2017-04-19T08:13:55.761Z,64.78
2017-04-19T08:14:57.192Z,64.36
2017-04-19T08:15:58.622Z,64.30
2017-04-19T08:17:00.045Z,64.87
2017-04-19T08:18:02.394Z,64.87
2017-04-19T08:19:03.821Z,65.16
2017-04-19T08:20:05.251Z,64.59
2017-04-19T08:21:06.680Z,64.01
2017-04-19T08:22:08.101Z,64.78
2017-04-19T08:23:09.527Z,64.01
2017-04-19T08:24:10.958Z,63.45
2017-04-19T08:25:12.381Z,63.64
2017-04-19T08:26:13.818Z,63.82
2017-04-19T08:27:15.247Z,64.01
2017-04-19T08:28:16.670Z,62.69
2017-04-19T08:29:18.092Z,63.17
2017-04-19T08:30:19.529Z,62.59
2017-04-19T08:31:20.956Z,62.97
2017-04-19T08:32:23.226Z,62.59
2017-04-19T08:33:24.656Z,63.45
2017-04-19T08:34:26.078Z,63.64
2017-04-19T08:35:27.508Z,63.45
2017-04-19T08:36:28.940Z,63.26
2017-04-19T08:37:30.365Z,64.11
2017-04-19T08:38:31.789Z,63.92
2017-04-19T08:39:33.218Z,63.45
2017-04-19T08:40:34.645Z,63.07
2017-04-19T08:41:36.074Z,63.45
2017-04-19T08:42:37.507Z,63.54
2017-04-19T08:43:38.886Z,63.45
2017-04-19T08:44:40.312Z,62.59
2017-04-19T08:45:41.735Z,63.17
2017-04-19T08:46:43.166Z,63.07
2017-04-19T08:47:44.593Z,63.35
2017-04-19T08:48:46.014Z,62.97
2017-04-19T08:49:47.475Z,63.17
2017-04-19T08:50:48.895Z,62.91
2017-04-19T08:51:50.335Z,61.77
2017-04-19T08:52:51.754Z,61.68
2017-04-19T08:53:53.183Z,61.77
2017-04-19T08:54:54.612Z,61.83
2017-04-19T08:55:56.036Z,61.83
2017-04-19T08:56:57.473Z,61.20
2017-04-19T08:57:58.896Z,60.92
2017-04-19T08:59:00.320Z,61.08
2017-04-19T09:00:01.800Z,60.53
2017-04-19T09:01:03.309Z,59.97
2017-04-19T09:02:04.734Z,60.16
2017-04-19T09:03:06.171Z,59.88
2017-04-19T09:04:07.606Z,60.16
2017-04-19T09:05:09.031Z,60.82
2017-04-19T09:06:10.454Z,59.40
2017-04-19T09:07:11.855Z,58.36
2017-04-19T09:08:13.367Z,58.73
2017-04-19T09:09:14.793Z,58.64
2017-04-19T09:10:16.224Z,59.30
2017-04-19T09:11:17.654Z,59.11
2017-04-19T09:12:19.191Z,60.16
2017-04-19T09:13:20.614Z,59.59
2017-04-19T09:14:22.049Z,59.40
2017-04-19T09:15:23.492Z,59.49
2017-04-19T09:16:24.921Z,58.73
2017-04-19T09:17:26.353Z,59.49
2017-04-19T09:18:27.860Z,60.06
2017-04-19T09:19:29.284Z,60.53
2017-04-19T09:20:30.703Z,60.53
2017-04-19T09:21:32.133Z,60.25
2017-04-19T09:22:33.560Z,61.01
2017-04-19T09:23:35.009Z,58.73
2017-04-19T09:24:36.438Z,58.36
2017-04-19T09:25:37.876Z,57.88
2017-04-19T09:26:39.314Z,58.07
2017-04-19T09:27:40.743Z,58.64
2017-04-19T09:28:42.176Z,58.54
2017-04-19T09:29:43.642Z,58.64
2017-04-19T09:30:45.063Z,57.69
2017-04-19T09:31:46.483Z,57.03
2017-04-19T09:32:47.936Z,59.02
2017-04-19T09:33:49.901Z,58.54
2017-04-19T09:34:51.327Z,57.62
2017-04-19T09:35:52.752Z,57.34
2017-04-19T09:36:54.180Z,57.56
2017-04-19T09:37:55.614Z,55.37
2017-04-19T09:38:57.045Z,55.97
2017-04-19T09:39:58.469Z,54.55
2017-04-19T09:40:59.905Z,54.45
2017-04-19T09:42:01.332Z,53.69
2017-04-19T09:43:02.758Z,54.45
2017-04-19T09:44:04.185Z,53.63
2017-04-19T09:45:05.613Z,52.76
2017-04-19T09:46:07.035Z,53.24
2017-04-19T09:47:08.466Z,53.05
2017-04-19T09:48:09.887Z,51.72
2017-04-19T09:49:11.313Z,47.73
2017-04-19T09:50:12.743Z,47.63
2017-04-19T09:51:14.175Z,45.35
2017-04-19T09:52:15.598Z,45.35
2017-04-19T09:53:17.037Z,45.80
2017-04-19T09:54:18.459Z,44.87
2017-04-19T09:55:19.882Z,45.83
2017-04-19T09:56:21.264Z,45.26
2017-04-19T09:57:22.690Z,44.12
2017-04-19T09:58:24.125Z,44.97
2017-04-19T09:59:25.625Z,46.01
2017-04-19T10:00:27.641Z,45.16
2017-04-19T10:01:29.082Z,45.73
2017-04-19T10:02:30.523Z,47.18
2017-04-19T10:03:31.947Z,47.94
2017-04-19T10:04:33.387Z,44.71
2017-04-19T10:05:34.817Z,45.00
2017-04-19T10:06:36.253Z,45.28
2017-04-19T10:07:37.685Z,46.04
2017-04-19T10:08:39.061Z,45.66
2017-04-19T10:09:40.500Z,46.42
2017-04-19T10:10:41.934Z,46.51
2017-04-19T10:11:43.369Z,46.99
2017-04-19T10:12:44.803Z,47.34
2017-04-19T10:13:46.226Z,48.66
2017-04-19T10:14:47.659Z,49.13
2017-04-19T10:15:49.087Z,49.77
2017-04-19T10:16:50.525Z,49.49
2017-04-19T10:17:51.964Z,50.34
2017-04-19T10:18:53.393Z,50.34
2017-04-19T10:19:54.825Z,50.24
2017-04-19T10:20:56.250Z,50.34
2017-04-19T10:21:57.691Z,51.20
2017-04-19T10:22:59.119Z,51.20
2017-04-19T10:24:00.552Z,51.39
2017-04-19T10:25:01.975Z,51.76
2017-04-19T10:26:03.404Z,51.86
2017-04-19T10:27:04.834Z,51.95
2017-04-19T10:29:46.131Z,50.46
2017-04-19T10:30:47.558Z,49.60
2017-04-19T10:31:48.986Z,48.75
2017-04-19T10:32:50.419Z,50.08
2017-04-19T10:33:51.857Z,49.32
2017-04-19T10:34:53.279Z,48.66
2017-04-19T10:35:54.707Z,47.80
2017-04-19T10:36:56.138Z,47.71
2017-04-19T10:37:57.560Z,48.85
2017-04-19T10:38:58.994Z,49.29
2017-04-19T10:40:00.422Z,49.70
2017-04-19T10:41:01.850Z,50.15
2017-04-19T10:42:03.272Z,49.20
2017-04-19T10:43:04.704Z,48.72
2017-04-19T10:44:06.125Z,48.61
2017-04-19T10:45:07.554Z,48.63
2017-04-19T10:46:08.981Z,48.25
2017-04-19T10:47:10.413Z,48.72
2017-04-19T10:48:11.847Z,48.37
2017-04-19T10:49:13.272Z,46.30
2017-04-19T10:50:14.704Z,45.83
2017-04-19T10:51:16.152Z,46.80
2017-04-19T10:52:17.571Z,44.61
2017-04-19T10:53:19.001Z,44.40
2017-04-19T10:54:20.435Z,45.66
2017-04-19T10:55:21.861Z,45.26
2017-04-19T10:56:23.286Z,45.16
2017-04-19T10:57:24.712Z,45.35
2017-04-19T10:58:26.141Z,46.30
2017-04-19T10:59:27.564Z,46.00
2017-04-19T11:00:29.004Z,46.01
2017-04-19T11:01:30.433Z,46.09
2017-04-19T11:02:31.864Z,46.85
2017-04-19T11:03:33.286Z,46.00
2017-04-19T11:04:34.712Z,46.19
2017-04-19T11:05:36.139Z,46.47
2017-04-19T11:06:37.568Z,46.94
2017-04-19T11:07:39.000Z,47.13
2017-04-19T11:08:40.432Z,46.94
2017-04-19T11:09:41.856Z,47.61
2017-04-19T11:10:43.299Z,47.61
2017-04-19T11:11:44.729Z,47.52
2017-04-19T11:12:46.172Z,48.72
2017-04-19T11:13:47.602Z,47.49
2017-04-19T11:14:49.021Z,48.37
2017-04-19T11:15:50.459Z,47.06
2017-04-19T11:16:51.971Z,46.04
2017-04-19T11:17:53.408Z,44.64
2017-04-19T11:18:54.825Z,42.92
2017-04-19T11:19:56.250Z,42.66
2017-04-19T11:20:57.681Z,41.71
2017-04-19T11:21:59.194Z,40.94
2017-04-19T11:23:00.625Z,41.53
2017-04-19T11:24:02.049Z,40.48
2017-04-19T11:25:03.487Z,41.36
2017-04-19T11:26:04.919Z,40.77
2017-04-19T11:27:06.353Z,38.56
2017-04-19T11:28:07.787Z,40.94
2017-04-19T11:29:09.268Z,41.30
2017-04-19T11:30:10.700Z,41.28
2017-04-19T11:31:12.131Z,41.17
2017-04-19T11:32:13.645Z,41.46
2017-04-19T11:33:15.077Z,41.83
2017-04-19T11:34:16.507Z,42.02
2017-04-19T11:35:17.934Z,42.14
2017-04-19T11:36:19.370Z,42.79
2017-04-19T11:37:20.793Z,43.26
2017-04-19T11:38:22.223Z,43.54
2017-04-19T11:39:23.658Z,42.60
2017-04-19T11:40:25.095Z,42.12
2017-04-19T11:41:26.528Z,41.72
2017-04-19T11:42:27.965Z,43.45
2017-04-19T11:43:29.398Z,43.14
2017-04-19T11:44:30.826Z,43.93
2017-04-19T11:45:32.255Z,42.79
2017-04-19T11:46:33.684Z,42.31
2017-04-19T11:47:35.110Z,43.73
2017-04-19T11:48:36.543Z,42.69
2017-04-19T11:49:37.969Z,41.93
2017-04-19T11:50:39.395Z,41.93
2017-04-19T11:51:40.826Z,42.12
2017-04-19T11:52:42.257Z,41.38
2017-04-19T11:53:43.684Z,41.57
2017-04-19T11:54:45.115Z,41.02
2017-04-19T11:55:46.543Z,42.07
2017-04-19T11:56:47.964Z,41.40
2017-04-19T11:57:49.402Z,40.18
2017-04-19T11:58:50.831Z,41.13
2017-04-19T11:59:52.266Z,40.94
2017-04-19T12:00:53.695Z,40.97
2017-04-19T12:01:55.123Z,39.90
2017-04-19T12:02:56.552Z,38.73
2017-04-19T12:03:57.987Z,38.85
2017-04-19T12:04:59.412Z,39.02
2017-04-19T12:06:00.843Z,39.69
2017-04-19T12:07:02.269Z,40.35
2017-04-19T12:08:03.704Z,40.06
2017-04-19T12:09:05.723Z,39.69
2017-04-19T12:10:07.144Z,39.69
2017-04-19T12:11:08.590Z,39.80
2017-04-19T12:12:10.022Z,39.82
2017-04-19T12:13:11.459Z,37.52
2017-04-19T12:14:12.884Z,38.28
2017-04-19T12:15:14.315Z,38.29
2017-04-19T12:16:15.747Z,37.99
2017-04-19T12:17:17.181Z,38.18
2017-04-19T12:18:18.607Z,38.47
2017-04-19T12:19:20.030Z,38.37
2017-04-19T12:20:21.469Z,37.99
2017-04-19T12:21:22.896Z,38.09
2017-04-19T12:22:24.323Z,38.37
2017-04-19T12:23:25.757Z,38.95
2017-04-19T12:24:27.188Z,39.80
2017-04-19T12:25:28.621Z,37.90
2017-04-19T12:26:30.044Z,36.28
2017-04-19T12:27:31.471Z,36.47
2017-04-19T12:28:32.904Z,36.93
2017-04-19T12:29:34.335Z,37.69
2017-04-19T12:30:35.763Z,39.99
2017-04-19T12:31:38.131Z,38.45
2017-04-19T12:32:39.567Z,38.28
2017-04-19T12:33:41.612Z,37.99
2017-04-19T12:34:43.045Z,38.75
2017-04-19T12:35:44.473Z,38.28
2017-04-19T12:36:45.908Z,38.37
2017-04-19T12:37:47.341Z,38.92
2017-04-19T12:38:48.809Z,38.18
2017-04-19T12:39:50.237Z,38.09
2017-04-19T12:40:51.668Z,37.54
2017-04-19T12:41:53.097Z,36.49
2017-04-19T12:42:54.529Z,37.92
2017-04-19T12:43:55.952Z,36.20
2017-04-19T12:44:57.385Z,36.77
2017-04-19T12:45:58.824Z,37.15
2017-04-19T12:47:00.246Z,37.71
2017-04-19T12:48:01.681Z,38.39
2017-04-19T12:49:03.117Z,38.96
2017-04-19T12:50:04.538Z,37.82
2017-04-19T12:51:05.976Z,38.68
2017-04-19T12:52:07.407Z,37.80
2017-04-19T12:53:08.835Z,38.37
2017-04-19T12:54:10.265Z,39.61
2017-04-19T12:55:11.693Z,39.02
2017-04-19T12:56:13.125Z,39.02
2017-04-19T12:57:14.551Z,40.26
2017-04-19T12:58:15.986Z,40.35
2017-04-19T12:59:17.417Z,40.90
2017-04-19T13:00:18.849Z,40.52
2017-04-19T13:01:20.286Z,39.97
2017-04-19T13:02:21.720Z,39.97
2017-04-19T13:03:23.146Z,40.92
2017-04-19T13:04:24.574Z,39.90
2017-04-19T13:05:26.098Z,39.78
2017-04-19T13:06:27.545Z,39.04
2017-04-19T13:07:28.981Z,37.88
2017-04-19T13:08:30.409Z,38.28
2017-04-19T13:09:31.834Z,39.04
2017-04-19T13:10:33.261Z,38.56
2017-04-19T13:11:34.691Z,39.69
2017-04-19T13:12:36.130Z,38.92